createdAt,value
2023-08-14T00:00:00.000Z,13.85
2023-08-14T00:15:00.000Z,13.12
2023-08-14T00:30:00.000Z,13.39
2023-08-14T00:45:00.000Z,12.21
2023-08-14T01:00:00.000Z,7.2
2023-08-14T01:15:00.000Z,7.41
2023-08-14T01:30:00.000Z,7.87
2023-08-14T01:45:00.000Z,8.69
2023-08-14T02:00:00.000Z,8.07
2023-08-14T02:15:00.000Z,8.18
2023-08-14T02:30:00.000Z,9.62
2023-08-14T02:45:00.000Z,8.48
2023-08-14T03:00:00.000Z,7.87
2023-08-14T03:15:00.000Z,9.73
2023-08-14T03:30:00.000Z,9.55
2023-08-14T03:45:00.000Z,10.02
2023-08-14T04:00:00.000Z,10.35
2023-08-14T04:15:00.000Z,9.29
2023-08-14T04:30:00.000Z,9.32
2023-08-14T04:45:00.000Z,9.64
2023-08-14T05:00:00.000Z,7.84
2023-08-14T05:15:00.000Z,7.38
2023-08-14T05:30:00.000Z,7.46
2023-08-14T05:45:00.000Z,7.25
2023-08-14T06:00:00.000Z,7.07
2023-08-14T06:15:00.000Z,7.18
2023-08-14T06:30:00.000Z,7.01
2023-08-14T06:45:00.000Z,7.11
2023-08-14T07:00:00.000Z,8.21
2023-08-14T07:15:00.000Z,8.45
2023-08-14T07:30:00.000Z,9.71
2023-08-14T07:45:00.000Z,9.54
2023-08-14T08:00:00.000Z,8.29
2023-08-14T08:15:00.000Z,8.94
2023-08-14T08:30:00.000Z,8.87
2023-08-14T08:45:00.000Z,7.55
2023-08-14T09:00:00.000Z,7.85
2023-08-14T09:15:00.000Z,8.18
2023-08-14T09:30:00.000Z,8.75
2023-08-14T09:45:00.000Z,8.8
2023-08-14T10:00:00.000Z,8.79
2023-08-14T10:15:00.000Z,9.99
2023-08-14T10:30:00.000Z,9.79
2023-08-14T10:45:00.000Z,10.36
2023-08-14T11:00:00.000Z,10.33
2023-08-14T11:15:00.000Z,10.09
2023-08-14T11:30:00.000Z,10.28
2023-08-14T11:45:00.000Z,10.42
2023-08-14T12:00:00.000Z,10.25
2023-08-14T12:15:00.000Z,10.87
2023-08-14T12:30:00.000Z,10.68
2023-08-14T12:45:00.000Z,10.79
2023-08-14T13:00:00.000Z,10.31
2023-08-14T13:15:00.000Z,10.44
2023-08-14T13:30:00.000Z,9.55
2023-08-14T13:45:00.000Z,8.52
2023-08-14T14:00:00.000Z,8.98
2023-08-14T14:15:00.000Z,10.27
2023-08-14T14:30:00.000Z,10.48
2023-08-14T14:45:00.000Z,10.39
2023-08-14T15:00:00.000Z,10.78
2023-08-14T15:15:00.000Z,10.59
2023-08-14T15:30:00.000Z,11.2
2023-08-14T15:45:00.000Z,10.53
2023-08-14T16:00:00.000Z,11.41
2023-08-14T16:15:00.000Z,11.09
2023-08-14T16:30:00.000Z,10.62
2023-08-14T16:45:00.000Z,12.94
2023-08-14T17:00:00.000Z,13.58
2023-08-14T17:15:00.000Z,13.88
2023-08-14T17:30:00.000Z,14.61
2023-08-14T17:45:00.000Z,14.49
2023-08-14T18:00:00.000Z,17.91
2023-08-14T18:15:00.000Z,15.75
2023-08-14T18:30:00.000Z,24.74
2023-08-14T18:45:00.000Z,17.95
2023-08-14T19:00:00.000Z,20.67
2023-08-14T19:15:00.000Z,21.95
2023-08-14T19:30:00.000Z,19
2023-08-14T19:45:00.000Z,19.09
2023-08-14T20:00:00.000Z,19.61
2023-08-14T20:15:00.000Z,19.07
2023-08-14T20:30:00.000Z,18.34
2023-08-14T20:45:00.000Z,18.47
2023-08-14T21:00:00.000Z,18.99
2023-08-14T21:15:00.000Z,19.01
2023-08-14T21:30:00.000Z,19.75
2023-08-14T21:45:00.000Z,19.41
2023-08-14T22:00:00.000Z,18.68
2023-08-14T22:15:00.000Z,17.81
2023-08-14T22:30:00.000Z,18.34
2023-08-14T22:45:00.000Z,18.69
2023-08-14T23:00:00.000Z,18.47
2023-08-14T23:15:00.000Z,16.61
2023-08-14T23:30:00.000Z,15.34
2023-08-14T23:45:00.000Z,14.91
